createdAt,value
2018-10-07T00:00:26.876Z,7.12
2018-10-07T00:01:07.182Z,7.17
2018-10-07T00:01:47.572Z,6.85
2018-10-07T00:02:27.936Z,6.70
2018-10-07T00:03:08.224Z,7.42
2018-10-07T00:03:48.615Z,6.47
2018-10-07T00:04:28.917Z,6.95
2018-10-07T00:05:09.157Z,7.20
2018-10-07T00:05:49.409Z,7.30
2018-10-07T00:06:29.641Z,6.80
2018-10-07T00:07:09.824Z,7.10
2018-10-07T00:07:50.187Z,7.40
2018-10-07T00:08:30.523Z,7.40
2018-10-07T00:09:10.710Z,6.80
2018-10-07T00:09:51.164Z,6.33
2018-10-07T00:10:31.470Z,6.65
2018-10-07T00:11:11.772Z,7.28
2018-10-07T00:11:52.464Z,6.65
2018-10-07T00:12:32.573Z,7.05
2018-10-07T00:13:12.731Z,6.97
2018-10-07T00:13:53.376Z,6.95
2018-10-07T00:14:33.620Z,7.25
2018-10-07T00:15:14.452Z,7.75
2018-10-07T00:15:54.879Z,7.08
2018-10-07T00:16:35.041Z,6.90
2018-10-07T00:17:15.581Z,7.12
2018-10-07T00:17:55.886Z,7.08
2018-10-07T00:18:36.133Z,6.50
2018-10-07T00:19:16.360Z,6.72
2018-10-07T00:19:56.560Z,6.50
2018-10-07T00:20:36.819Z,6.33
2018-10-07T00:21:17.101Z,6.90
2018-10-07T00:21:57.298Z,6.97
2018-10-07T00:22:37.594Z,7.28
2018-10-07T00:23:17.884Z,7.00
2018-10-07T00:23:58.048Z,6.58
2018-10-07T00:24:38.404Z,7.33
2018-10-07T00:25:18.648Z,7.70
2018-10-07T00:25:58.872Z,7.25
2018-10-07T00:26:39.198Z,7.08
2018-10-07T00:27:19.400Z,6.85
2018-10-07T00:27:59.607Z,7.22
2018-10-07T00:28:39.845Z,7.53
2018-10-07T00:29:20.124Z,7.10
2018-10-07T00:30:00.244Z,6.85
2018-10-07T00:30:40.533Z,7.58
2018-10-07T00:31:20.666Z,6.70
2018-10-07T00:32:06.053Z,7.40
2018-10-07T00:32:46.320Z,7.37
2018-10-07T00:33:26.540Z,7.40
2018-10-07T00:34:06.620Z,7.35
2018-10-07T00:34:47.849Z,7.58
2018-10-07T00:35:28.021Z,6.72
2018-10-07T00:36:08.273Z,7.80
2018-10-07T00:36:48.672Z,7.10
2018-10-07T00:37:28.789Z,8.03
2018-10-07T00:38:08.873Z,7.58
2018-10-07T00:38:49.311Z,7.33
2018-10-07T00:39:29.464Z,7.37
2018-10-07T00:40:10.158Z,7.67
2018-10-07T00:40:50.445Z,7.40
2018-10-07T00:41:30.595Z,7.75
2018-10-07T00:42:11.254Z,8.13
2018-10-07T00:42:51.593Z,7.12
2018-10-07T00:43:32.148Z,7.50
2018-10-07T00:44:12.409Z,8.00
2018-10-07T00:44:52.584Z,7.42
2018-10-07T00:45:32.850Z,7.35
2018-10-07T00:46:13.138Z,7.30
2018-10-07T00:46:53.475Z,7.58
2018-10-07T00:47:33.701Z,8.05
2018-10-07T00:48:14.037Z,7.85
2018-10-07T00:48:54.232Z,7.95
2018-10-07T00:49:35.057Z,8.00
2018-10-07T00:50:15.329Z,7.30
2018-10-07T00:50:55.595Z,8.35
2018-10-07T00:51:35.868Z,8.00
2018-10-07T00:52:16.308Z,7.78
2018-10-07T00:52:56.783Z,7.62
2018-10-07T00:53:36.989Z,7.30
2018-10-07T00:54:17.301Z,7.33
2018-10-07T00:54:57.861Z,7.62
2018-10-07T00:55:38.036Z,7.58
2018-10-07T00:56:18.404Z,7.42
2018-10-07T00:56:58.637Z,7.37
2018-10-07T00:57:38.928Z,7.53
2018-10-07T00:58:19.252Z,8.05
2018-10-07T00:58:59.559Z,7.42
2018-10-07T00:59:39.840Z,7.90
2018-10-07T01:00:20.028Z,8.13
2018-10-07T01:01:00.653Z,7.60
2018-10-07T01:01:40.768Z,8.13
2018-10-07T01:02:21.070Z,7.95
2018-10-07T01:03:01.359Z,7.53
2018-10-07T01:03:41.534Z,7.90
2018-10-07T01:04:21.769Z,7.55
2018-10-07T01:05:02.096Z,8.00
2018-10-07T01:05:42.841Z,8.08
2018-10-07T01:06:22.997Z,7.60
2018-10-07T01:07:03.896Z,7.72
2018-10-07T01:07:44.145Z,8.00
2018-10-07T01:08:24.404Z,7.87
2018-10-07T01:09:07.295Z,8.65
2018-10-07T01:09:47.439Z,8.28
2018-10-07T01:10:27.516Z,7.75
2018-10-07T01:11:08.145Z,8.60
2018-10-07T01:11:48.390Z,7.53
2018-10-07T01:12:28.520Z,7.53
2018-10-07T01:13:08.691Z,7.67
2018-10-07T01:13:49.029Z,7.17
2018-10-07T01:14:29.244Z,7.58
2018-10-07T01:15:09.505Z,7.20
2018-10-07T01:15:50.316Z,8.13
2018-10-07T01:16:30.559Z,7.37
2018-10-07T01:17:11.183Z,7.92
2018-10-07T01:17:51.535Z,7.65
2018-10-07T01:18:31.760Z,7.40
2018-10-07T01:19:12.023Z,7.40
2018-10-07T01:19:52.657Z,7.42
2018-10-07T01:20:32.815Z,7.37
2018-10-07T01:21:13.219Z,7.55
2018-10-07T01:21:53.762Z,7.92
2018-10-07T01:22:34.153Z,8.00
2018-10-07T01:23:14.375Z,7.40
2018-10-07T01:23:54.751Z,7.60
2018-10-07T01:24:34.872Z,7.47
2018-10-07T01:25:15.200Z,7.28
2018-10-07T01:25:55.461Z,7.12
2018-10-07T01:26:35.635Z,7.40
2018-10-07T01:27:16.016Z,7.10
2018-10-07T01:27:56.720Z,7.20
2018-10-07T01:28:36.997Z,6.55
2018-10-07T01:29:17.157Z,6.78
2018-10-07T01:29:57.459Z,7.53
2018-10-07T01:30:37.599Z,8.05
2018-10-07T01:31:17.796Z,7.22
2018-10-07T01:31:58.036Z,7.22
2018-10-07T01:32:38.207Z,7.67
2018-10-07T01:33:18.559Z,6.87
2018-10-07T01:33:58.790Z,7.35
2018-10-07T01:34:39.023Z,7.30
2018-10-07T01:35:19.468Z,7.40
2018-10-07T01:35:59.629Z,7.28
2018-10-07T01:36:39.894Z,7.40
2018-10-07T01:37:20.344Z,7.60
2018-10-07T01:38:00.744Z,7.15
2018-10-07T01:38:41.097Z,7.83
2018-10-07T01:39:21.336Z,7.50
2018-10-07T01:40:01.485Z,7.62
2018-10-07T01:40:41.817Z,7.70
2018-10-07T01:41:22.125Z,7.35
2018-10-07T01:42:02.450Z,8.13
2018-10-07T01:42:42.725Z,7.67
2018-10-07T01:43:23.069Z,7.72
2018-10-07T01:44:03.350Z,8.10
2018-10-07T01:44:43.600Z,8.00
2018-10-07T01:45:23.795Z,7.95
2018-10-07T01:46:04.084Z,8.28
2018-10-07T01:46:44.588Z,8.40
2018-10-07T01:47:24.777Z,7.58
2018-10-07T01:48:05.128Z,7.85
2018-10-07T01:48:45.567Z,7.65
2018-10-07T01:49:25.771Z,8.65
2018-10-07T01:50:06.434Z,7.62
2018-10-07T01:50:46.747Z,7.53
2018-10-07T01:51:26.963Z,8.13
2018-10-07T01:52:07.529Z,7.87
2018-10-07T01:52:48.028Z,8.18
2018-10-07T01:53:28.469Z,8.73
2018-10-07T01:54:08.759Z,7.97
2018-10-07T01:54:49.018Z,8.40
2018-10-07T01:55:29.200Z,8.08
2018-10-07T01:56:09.680Z,7.80
2018-10-07T01:56:49.860Z,7.85
2018-10-07T01:57:30.236Z,8.25
2018-10-07T01:58:10.421Z,8.08
2018-10-07T01:58:50.668Z,7.60
2018-10-07T01:59:30.857Z,8.30
2018-10-07T02:00:11.465Z,8.28
2018-10-07T02:00:51.624Z,8.00
2018-10-07T02:01:31.948Z,8.15
2018-10-07T02:02:12.223Z,8.10
2018-10-07T02:02:52.467Z,7.95
2018-10-07T02:03:32.902Z,8.03
2018-10-07T02:04:13.241Z,8.25
2018-10-07T02:04:53.590Z,7.28
2018-10-07T02:05:34.077Z,8.08
2018-10-07T02:06:14.259Z,7.92
2018-10-07T02:06:54.425Z,7.85
2018-10-07T02:07:34.756Z,8.33
2018-10-07T02:08:15.139Z,7.87
2018-10-07T02:08:55.397Z,8.48
2018-10-07T02:09:35.533Z,8.38
2018-10-07T02:10:15.887Z,7.87
2018-10-07T02:10:56.204Z,8.63
2018-10-07T02:11:36.426Z,8.00
2018-10-07T02:12:16.765Z,8.23
2018-10-07T02:12:56.936Z,7.30
2018-10-07T02:13:37.168Z,7.70
2018-10-07T02:14:17.552Z,8.20
2018-10-07T02:14:57.648Z,7.80
2018-10-07T02:15:38.337Z,7.70
2018-10-07T02:16:18.522Z,7.45
2018-10-07T02:16:58.628Z,8.05
2018-10-07T02:17:38.872Z,7.25
2018-10-07T02:18:19.268Z,7.45
2018-10-07T02:18:59.636Z,7.80
2018-10-07T02:19:39.865Z,8.13
2018-10-07T02:20:20.152Z,7.58
2018-10-07T02:21:00.503Z,7.75
2018-10-07T02:21:40.766Z,8.53
2018-10-07T02:22:21.064Z,8.53
2018-10-07T02:23:01.267Z,7.75
2018-10-07T02:23:41.457Z,8.23
2018-10-07T02:24:21.724Z,7.53
2018-10-07T02:25:01.968Z,8.00
2018-10-07T02:25:42.220Z,8.45
2018-10-07T02:26:22.593Z,7.87
2018-10-07T02:27:02.844Z,8.45
2018-10-07T02:27:43.229Z,8.03
2018-10-07T02:28:23.435Z,8.20
2018-10-07T02:29:04.140Z,7.83
2018-10-07T02:29:44.415Z,7.90
2018-10-07T02:30:24.635Z,8.18
2018-10-07T02:31:04.753Z,8.28
2018-10-07T02:31:45.163Z,8.55
2018-10-07T02:32:25.479Z,7.90
2018-10-07T02:33:05.808Z,8.60
2018-10-07T02:33:45.756Z,8.43
2018-10-07T02:34:26.150Z,7.95
2018-10-07T02:35:06.231Z,8.33
2018-10-07T02:35:46.436Z,8.55
2018-10-07T02:36:26.635Z,8.18
2018-10-07T02:37:06.872Z,8.40
2018-10-07T02:37:47.070Z,8.20
2018-10-07T02:38:27.593Z,7.95
2018-10-07T02:39:09.195Z,7.70
2018-10-07T02:39:49.444Z,8.13
2018-10-07T02:40:29.588Z,8.10
2018-10-07T02:41:09.786Z,7.97
2018-10-07T02:41:49.872Z,8.20
2018-10-07T02:42:30.157Z,7.83
2018-10-07T02:43:10.988Z,7.90
2018-10-07T02:43:51.261Z,8.43
2018-10-07T02:44:31.501Z,8.83
2018-10-07T02:45:12.020Z,8.13
2018-10-07T02:45:52.168Z,8.05
2018-10-07T02:46:32.507Z,9.08
2018-10-07T02:47:12.700Z,8.35
2018-10-07T02:47:53.032Z,8.40
2018-10-07T02:48:33.352Z,7.75
2018-10-07T02:49:13.587Z,8.00
2018-10-07T02:49:53.793Z,8.83
2018-10-07T02:50:34.184Z,8.45
2018-10-07T02:51:14.058Z,8.27
2018-10-07T02:51:54.516Z,9.55
2018-10-07T02:52:40.072Z,8.23
2018-10-07T02:53:20.473Z,8.33
2018-10-07T02:54:01.068Z,8.73
2018-10-07T02:54:41.506Z,8.95
2018-10-07T02:55:25.033Z,7.85
2018-10-07T02:56:05.940Z,8.58
2018-10-07T02:56:46.709Z,8.78
2018-10-07T02:57:27.957Z,8.88
2018-10-07T02:58:08.265Z,8.88
2018-10-07T02:58:48.563Z,8.70
2018-10-07T02:59:28.908Z,7.85
2018-10-07T03:00:09.200Z,8.73
2018-10-07T03:00:49.618Z,8.60
2018-10-07T03:01:29.816Z,8.93
2018-10-07T03:02:09.944Z,9.25
2018-10-07T03:02:50.884Z,9.43
2018-10-07T03:03:31.047Z,8.33
2018-10-07T03:04:11.646Z,8.48
2018-10-07T03:04:52.045Z,8.70
2018-10-07T03:05:33.074Z,9.03
2018-10-07T03:06:13.869Z,9.45
2018-10-07T03:06:54.114Z,9.20
2018-10-07T03:07:34.493Z,8.58
2018-10-07T03:08:14.025Z,9.30
2018-10-07T03:08:53.814Z,8.73
2018-10-07T03:09:34.061Z,9.10
2018-10-07T03:10:14.345Z,9.50
2018-10-07T03:10:54.078Z,9.13
2018-10-07T03:11:34.275Z,8.83
2018-10-07T03:12:14.448Z,8.88
2018-10-07T03:12:54.636Z,9.60
2018-10-07T03:13:34.780Z,8.45
2018-10-07T03:14:15.159Z,9.10
2018-10-07T03:14:55.578Z,9.48
2018-10-07T03:15:35.687Z,8.43
2018-10-07T03:16:16.168Z,9.00
2018-10-07T03:16:56.304Z,8.73
2018-10-07T03:17:36.700Z,9.40
2018-10-07T03:18:16.929Z,9.08
2018-10-07T03:18:57.313Z,9.60
2018-10-07T03:19:37.476Z,8.83
2018-10-07T03:20:17.999Z,9.40
2018-10-07T03:20:58.456Z,8.85
2018-10-07T03:21:38.702Z,8.43
2018-10-07T03:22:18.982Z,8.93
2018-10-07T03:22:59.248Z,8.40
2018-10-07T03:23:39.552Z,9.08
2018-10-07T03:24:19.853Z,8.10
2018-10-07T03:25:00.337Z,8.73
2018-10-07T03:25:40.415Z,8.95
2018-10-07T03:26:20.781Z,8.28
2018-10-07T03:27:01.127Z,8.73
2018-10-07T03:27:41.426Z,8.90
2018-10-07T03:28:21.858Z,9.28
2018-10-07T03:29:02.126Z,9.23
2018-10-07T03:29:42.318Z,8.93
2018-10-07T03:30:22.696Z,8.63
2018-10-07T03:31:02.973Z,8.95
2018-10-07T03:31:43.267Z,9.13
2018-10-07T03:32:23.871Z,8.65
2018-10-07T03:33:04.248Z,8.18
2018-10-07T03:33:44.338Z,8.95
2018-10-07T03:34:24.597Z,9.00
2018-10-07T03:35:04.897Z,7.90
2018-10-07T03:35:45.132Z,8.93
2018-10-07T03:36:25.329Z,8.75
2018-10-07T03:37:05.545Z,9.10
2018-10-07T03:37:45.734Z,8.75
2018-10-07T03:38:26.099Z,9.13
2018-10-07T03:39:07.367Z,8.83
2018-10-07T03:39:47.844Z,8.98
2018-10-07T03:40:28.160Z,9.38
2018-10-07T03:41:08.489Z,8.03
2018-10-07T03:41:48.739Z,9.45
2018-10-07T03:42:29.250Z,8.83
2018-10-07T03:43:09.409Z,8.73
2018-10-07T03:43:49.684Z,8.88
2018-10-07T03:44:29.989Z,8.70
2018-10-07T03:45:10.305Z,9.08
2018-10-07T03:45:50.686Z,9.08
2018-10-07T03:46:31.011Z,8.60
2018-10-07T03:47:11.210Z,8.48
2018-10-07T03:47:51.464Z,8.25
2018-10-07T03:48:31.674Z,9.68
2018-10-07T03:49:12.056Z,8.38
2018-10-07T03:49:52.352Z,8.95
2018-10-07T03:50:32.527Z,8.73
2018-10-07T03:51:12.719Z,8.35
2018-10-07T03:51:53.203Z,9.30
2018-10-07T03:52:33.518Z,8.85
2018-10-07T03:53:13.966Z,8.30
2018-10-07T03:53:54.451Z,8.45
2018-10-07T03:54:34.933Z,8.60
2018-10-07T03:55:15.170Z,8.23
2018-10-07T03:55:55.466Z,8.03
2018-10-07T03:56:35.726Z,8.20
2018-10-07T03:57:15.976Z,8.55
2018-10-07T03:57:56.238Z,7.75
2018-10-07T03:58:36.588Z,8.25
2018-10-07T03:59:16.939Z,9.18
2018-10-07T03:59:57.427Z,11.22
2018-10-07T04:00:38.110Z,10.32
2018-10-07T04:01:18.618Z,10.85
2018-10-07T04:01:59.191Z,11.12
2018-10-07T04:02:39.760Z,11.75
2018-10-07T04:03:20.034Z,11.60
2018-10-07T04:04:00.279Z,10.40
2018-10-07T04:04:40.488Z,10.70
2018-10-07T04:05:21.130Z,11.25
2018-10-07T04:06:01.471Z,11.57
2018-10-07T04:06:42.211Z,11.12
2018-10-07T04:07:23.413Z,11.80
2018-10-07T04:08:03.668Z,12.07
2018-10-07T04:08:44.105Z,11.40
2018-10-07T04:09:24.698Z,10.53
2018-10-07T04:10:04.996Z,11.28
2018-10-07T04:10:45.306Z,10.88
2018-10-07T04:11:25.674Z,11.38
2018-10-07T04:12:06.441Z,11.28
2018-10-07T04:12:46.856Z,11.50
2018-10-07T04:13:27.137Z,11.43
2018-10-07T04:14:07.290Z,11.43
2018-10-07T04:14:48.089Z,11.50
2018-10-07T04:15:28.784Z,11.20
2018-10-07T04:16:09.053Z,11.33
2018-10-07T04:16:48.788Z,11.80
2018-10-07T04:17:29.213Z,11.65
2018-10-07T04:18:09.492Z,11.38
2018-10-07T04:18:49.869Z,11.68
2018-10-07T04:19:30.206Z,11.35
2018-10-07T04:20:09.956Z,11.88
2018-10-07T04:20:50.351Z,11.00
2018-10-07T04:21:30.552Z,11.05
2018-10-07T04:22:10.893Z,11.30
2018-10-07T04:22:50.557Z,11.50
2018-10-07T04:23:30.129Z,11.43
2018-10-07T04:24:09.765Z,10.50
2018-10-07T04:24:49.680Z,11.20
2018-10-07T04:25:29.492Z,10.10
2018-10-07T04:26:09.144Z,10.97
2018-10-07T04:26:49.108Z,10.40
2018-10-07T04:27:28.951Z,10.17
2018-10-07T04:28:09.224Z,11.57
2018-10-07T04:28:49.652Z,10.50
2018-10-07T04:29:29.329Z,11.13
2018-10-07T04:30:10.324Z,10.95
2018-10-07T04:30:49.981Z,11.00
2018-10-07T04:31:29.736Z,10.77
2018-10-07T04:32:09.480Z,10.43
2018-10-07T04:32:49.463Z,10.73
2018-10-07T04:33:29.785Z,11.73
2018-10-07T04:34:10.169Z,11.20
2018-10-07T04:34:50.301Z,10.83
2018-10-07T04:35:30.644Z,11.18
2018-10-07T04:36:10.228Z,11.63
2018-10-07T04:36:50.113Z,11.57
2018-10-07T04:37:30.553Z,10.95
2018-10-07T04:38:11.021Z,11.08
2018-10-07T04:38:51.553Z,11.40
2018-10-07T04:39:31.456Z,11.47
2018-10-07T04:40:11.752Z,11.48
2018-10-07T04:40:51.399Z,11.77
2018-10-07T04:41:31.609Z,11.35
2018-10-07T04:42:11.810Z,11.48
2018-10-07T04:42:51.522Z,12.50
2018-10-07T04:43:31.147Z,11.60
2018-10-07T04:44:10.884Z,11.27
2018-10-07T04:44:50.904Z,11.97
2018-10-07T04:45:31.227Z,11.18
2018-10-07T04:46:11.556Z,11.95
2018-10-07T04:46:52.233Z,12.13
2018-10-07T04:47:32.595Z,11.65
2018-10-07T04:48:12.940Z,11.80
2018-10-07T04:48:53.282Z,11.10
2018-10-07T04:49:33.488Z,11.90
2018-10-07T04:50:13.803Z,11.83
2018-10-07T04:50:54.104Z,11.45
2018-10-07T04:51:33.899Z,11.27
2018-10-07T04:52:13.613Z,10.50
2018-10-07T04:52:53.991Z,10.85
2018-10-07T04:53:33.736Z,12.33
2018-10-07T04:54:14.117Z,11.78
2018-10-07T04:54:53.827Z,12.07
2018-10-07T04:55:33.456Z,11.50
2018-10-07T04:56:13.514Z,12.40
2018-10-07T04:56:53.209Z,11.80
2018-10-07T04:57:33.039Z,11.63
2018-10-07T04:58:12.824Z,12.10
2018-10-07T04:58:52.685Z,12.17
2018-10-07T04:59:32.937Z,11.83
2018-10-07T05:00:12.651Z,11.50
2018-10-07T05:00:53.289Z,12.13
2018-10-07T05:01:33.020Z,12.20
2018-10-07T05:02:12.840Z,12.13
2018-10-07T05:02:52.812Z,11.93
2018-10-07T05:03:32.635Z,12.10
2018-10-07T05:04:12.363Z,11.97
2018-10-07T05:04:52.258Z,11.53
2018-10-07T05:05:31.922Z,12.17
2018-10-07T05:06:11.548Z,11.97
2018-10-07T05:06:51.913Z,12.30
2018-10-07T05:07:31.742Z,12.10
2018-10-07T05:08:12.051Z,13.30
2018-10-07T05:08:54.155Z,12.03
2018-10-07T05:09:34.244Z,12.47
2018-10-07T05:10:43.084Z,12.43
2018-10-07T05:11:23.155Z,12.20
2018-10-07T05:12:05.200Z,11.73
2018-10-07T05:12:45.250Z,12.90
2018-10-07T05:13:35.533Z,11.97
2018-10-07T05:14:15.798Z,11.65
2018-10-07T05:14:55.724Z,11.40
2018-10-07T05:15:35.550Z,11.60
2018-10-07T05:16:21.702Z,11.33
2018-10-07T05:17:01.520Z,12.57
2018-10-07T05:17:41.149Z,12.37
2018-10-07T05:18:20.902Z,11.70
2018-10-07T05:19:02.111Z,11.73
2018-10-07T05:19:41.710Z,13.28
2018-10-07T05:20:21.948Z,12.17
2018-10-07T05:21:01.755Z,12.20
2018-10-07T05:21:41.709Z,12.50
2018-10-07T05:22:21.600Z,11.90
2018-10-07T05:23:01.861Z,12.85
2018-10-07T05:23:41.694Z,13.67
2018-10-07T05:24:21.819Z,12.17
2018-10-07T05:25:02.136Z,13.22
2018-10-07T05:25:42.016Z,13.00
2018-10-07T05:26:22.345Z,12.68
2018-10-07T05:27:01.954Z,13.77
2018-10-07T05:27:41.571Z,12.50
2018-10-07T05:28:22.015Z,13.10
2018-10-07T05:29:02.034Z,13.47
2018-10-07T05:29:42.822Z,12.98
2018-10-07T05:30:22.476Z,13.07
2018-10-07T05:31:02.102Z,12.37
2018-10-07T05:31:41.697Z,12.20
2018-10-07T05:32:22.283Z,12.20
2018-10-07T05:33:02.810Z,12.98
2018-10-07T05:33:43.147Z,12.07
2018-10-07T05:34:23.528Z,12.33
2018-10-07T05:35:03.813Z,12.40
2018-10-07T05:35:45.133Z,12.68
2018-10-07T05:36:24.919Z,11.53
2018-10-07T05:37:05.948Z,12.43
2018-10-07T05:37:46.636Z,12.88
2018-10-07T05:38:26.156Z,12.50
2018-10-07T05:39:08.588Z,12.73
2018-10-07T05:39:48.166Z,11.27
2018-10-07T05:40:28.619Z,12.73
2018-10-07T05:41:09.310Z,12.30
2018-10-07T05:41:49.832Z,12.53
2018-10-07T05:42:30.014Z,12.43
2018-10-07T05:43:10.240Z,12.95
2018-10-07T05:43:50.876Z,13.03
2018-10-07T05:44:31.300Z,12.70
2018-10-07T05:45:11.660Z,12.55
2018-10-07T05:45:51.581Z,13.40
2018-10-07T05:46:32.264Z,12.10
2018-10-07T05:47:12.519Z,12.47
2018-10-07T05:47:52.305Z,12.40
2018-10-07T05:48:32.004Z,11.87
2018-10-07T05:49:12.333Z,12.40
2018-10-07T05:49:52.217Z,12.43
2018-10-07T05:50:32.339Z,13.00
2018-10-07T05:51:12.641Z,11.70
2018-10-07T05:51:52.954Z,12.40
2018-10-07T05:52:32.775Z,12.23
2018-10-07T05:53:12.461Z,12.23
2018-10-07T05:53:52.170Z,13.17
2018-10-07T05:54:32.392Z,12.63
2018-10-07T05:55:12.775Z,12.93
2018-10-07T05:55:53.186Z,12.60
2018-10-07T05:56:32.804Z,12.70
2018-10-07T05:57:13.150Z,12.28
2018-10-07T05:57:56.983Z,12.05
2018-10-07T05:58:37.939Z,11.68
2018-10-07T05:59:18.262Z,12.25
2018-10-07T05:59:58.392Z,11.87
2018-10-07T06:00:38.582Z,12.03
2018-10-07T06:01:39.650Z,11.18
2018-10-07T06:02:20.224Z,11.40
2018-10-07T06:03:08.448Z,11.22
2018-10-07T06:04:53.349Z,11.90
2018-10-07T06:05:33.570Z,11.88
2018-10-07T06:06:13.843Z,11.45
2018-10-07T06:06:56.315Z,12.43
2018-10-07T06:07:36.188Z,12.23
2018-10-07T06:08:18.058Z,11.45
2018-10-07T06:08:58.793Z,12.10
2018-10-07T06:09:39.377Z,12.03
2018-10-07T06:10:19.747Z,11.97
2018-10-07T06:11:00.193Z,12.35
2018-10-07T06:11:40.389Z,12.73
2018-10-07T06:12:20.109Z,11.80
2018-10-07T06:13:00.389Z,12.53
2018-10-07T06:13:41.132Z,12.95
2018-10-07T06:14:33.089Z,13.85
2018-10-07T06:15:46.941Z,13.35
2018-10-07T06:16:27.329Z,12.60
2018-10-07T06:17:07.740Z,13.35
2018-10-07T06:17:47.844Z,13.50
2018-10-07T06:18:28.020Z,13.98
2018-10-07T06:19:08.706Z,13.45
2018-10-07T06:19:49.357Z,13.45
2018-10-07T06:20:29.952Z,13.28
2018-10-07T06:21:11.001Z,12.53
2018-10-07T06:21:51.660Z,12.65
2018-10-07T06:22:32.019Z,13.18
2018-10-07T06:23:12.916Z,12.47
2018-10-07T06:23:53.824Z,12.53
2018-10-07T06:24:35.261Z,12.85
2018-10-07T06:25:15.554Z,11.70
2018-10-07T06:25:56.105Z,12.43
2018-10-07T06:26:36.720Z,12.50
2018-10-07T06:27:17.026Z,12.50
2018-10-07T06:27:58.000Z,12.37
2018-10-07T06:28:38.486Z,11.57
2018-10-07T06:29:18.965Z,12.13
2018-10-07T06:29:59.626Z,10.40
2018-10-07T06:30:40.076Z,11.12
2018-10-07T06:31:20.802Z,10.82
2018-10-07T06:32:01.136Z,11.95
2018-10-07T06:32:41.655Z,10.60
2018-10-07T06:33:22.219Z,11.22
2018-10-07T06:34:02.552Z,10.75
2018-10-07T06:34:43.156Z,11.38
2018-10-07T06:35:24.616Z,10.40
2018-10-07T06:36:05.234Z,11.65
2018-10-07T06:36:45.628Z,11.12
2018-10-07T06:37:26.179Z,11.60
2018-10-07T06:38:06.826Z,10.88
2018-10-07T06:38:47.199Z,11.48
2018-10-07T06:39:27.600Z,11.48
2018-10-07T06:40:07.844Z,10.93
2018-10-07T06:40:48.139Z,11.53
2018-10-07T06:41:28.715Z,11.33
2018-10-07T06:42:09.496Z,10.53
2018-10-07T06:42:50.301Z,11.28
2018-10-07T06:43:30.695Z,11.53
2018-10-07T06:44:11.069Z,11.65
2018-10-07T06:44:51.927Z,11.10
2018-10-07T06:45:32.617Z,10.88
2018-10-07T06:46:14.413Z,11.73
2018-10-07T06:46:54.887Z,11.18
2018-10-07T06:47:35.079Z,12.88
2018-10-07T06:48:15.484Z,11.12
2018-10-07T06:48:55.752Z,11.57
2018-10-07T06:49:36.090Z,11.20
2018-10-07T06:50:16.442Z,11.45
2018-10-07T06:50:56.843Z,11.78
2018-10-07T06:51:37.616Z,11.03
2018-10-07T06:52:17.860Z,11.55
2018-10-07T06:52:58.498Z,10.90
2018-10-07T06:53:38.656Z,11.65
2018-10-07T06:54:19.308Z,10.95
2018-10-07T06:54:59.859Z,11.18
2018-10-07T06:55:40.437Z,11.08
2018-10-07T06:56:20.935Z,10.18
2018-10-07T06:57:01.240Z,10.38
2018-10-07T06:57:41.857Z,10.93
2018-10-07T06:58:22.340Z,10.93
2018-10-07T06:59:02.500Z,10.43
2018-10-07T06:59:43.224Z,10.95
2018-10-07T07:00:23.548Z,10.90
2018-10-07T07:01:04.138Z,11.20
2018-10-07T07:01:44.426Z,10.68
2018-10-07T07:02:24.888Z,11.08
2018-10-07T07:03:05.379Z,10.50
2018-10-07T07:03:45.681Z,11.45
2018-10-07T07:04:26.106Z,11.38
2018-10-07T07:05:06.760Z,11.65
2018-10-07T07:05:47.251Z,10.60
2018-10-07T07:06:27.723Z,11.22
2018-10-07T07:07:08.612Z,11.03
2018-10-07T07:07:48.967Z,10.82
2018-10-07T07:08:29.384Z,11.33
2018-10-07T07:09:10.513Z,11.03
2018-10-07T07:09:51.050Z,11.08
2018-10-07T07:10:31.488Z,10.43
2018-10-07T07:11:11.725Z,11.05
2018-10-07T07:11:52.084Z,11.45
2018-10-07T07:12:32.425Z,11.93
2018-10-07T07:13:12.752Z,11.95
2018-10-07T07:13:53.182Z,11.20
2018-10-07T07:14:33.391Z,11.12
2018-10-07T07:15:14.011Z,10.88
2018-10-07T07:15:54.365Z,11.12
2018-10-07T07:16:34.829Z,11.33
2018-10-07T07:17:15.155Z,13.22
2018-10-07T07:17:55.602Z,13.60
2018-10-07T07:18:35.823Z,13.68
2018-10-07T07:19:16.268Z,14.13
2018-10-07T07:19:56.841Z,14.43
2018-10-07T07:20:37.330Z,13.65
2018-10-07T07:21:17.981Z,14.70
2018-10-07T07:21:58.831Z,13.98
2018-10-07T07:22:39.087Z,14.98
2018-10-07T07:23:19.420Z,13.62
2018-10-07T07:23:59.744Z,13.65
2018-10-07T07:24:40.020Z,13.58
2018-10-07T07:25:20.506Z,13.00
2018-10-07T07:26:00.674Z,13.15
2018-10-07T07:26:40.919Z,14.35
2018-10-07T07:27:21.340Z,13.10
2018-10-07T07:28:01.550Z,13.85
2018-10-07T07:28:42.133Z,13.32
2018-10-07T07:29:22.492Z,13.58
2018-10-07T07:30:03.120Z,13.88
2018-10-07T07:30:43.400Z,13.10
2018-10-07T07:31:23.938Z,13.80
2018-10-07T07:32:04.350Z,12.88
2018-10-07T07:32:44.662Z,13.30
2018-10-07T07:33:24.889Z,13.65
2018-10-07T07:34:05.244Z,13.98
2018-10-07T07:34:45.514Z,12.80
2018-10-07T07:35:25.751Z,12.65
2018-10-07T07:36:06.036Z,13.50
2018-10-07T07:36:46.491Z,13.98
2018-10-07T07:37:26.932Z,13.98
2018-10-07T07:38:07.192Z,14.35
2018-10-07T07:38:47.600Z,13.43
2018-10-07T07:39:28.236Z,14.00
2018-10-07T07:40:08.510Z,14.43
2018-10-07T07:40:48.802Z,14.10
2018-10-07T07:41:29.004Z,13.80
2018-10-07T07:42:09.346Z,12.90
2018-10-07T07:42:49.905Z,13.45
2018-10-07T07:43:30.341Z,13.75
2018-10-07T07:44:10.733Z,14.30
2018-10-07T07:44:51.187Z,13.80
2018-10-07T07:45:31.544Z,13.38
2018-10-07T07:46:11.928Z,13.85
2018-10-07T07:46:52.275Z,13.60
2018-10-07T07:47:32.503Z,13.93
2018-10-07T07:48:12.825Z,12.90
2018-10-07T07:48:53.337Z,13.90
2018-10-07T07:49:33.539Z,14.18
2018-10-07T07:50:13.840Z,13.48
2018-10-07T07:50:54.130Z,14.07
2018-10-07T07:51:34.232Z,13.55
2018-10-07T07:52:14.561Z,13.72
2018-10-07T07:52:54.860Z,13.48
2018-10-07T07:53:35.188Z,13.35
2018-10-07T07:54:15.675Z,14.03
2018-10-07T07:54:56.060Z,13.95
2018-10-07T07:55:36.290Z,13.32
2018-10-07T07:56:16.690Z,12.93
2018-10-07T07:56:57.014Z,12.43
2018-10-07T07:57:37.416Z,13.45
2018-10-07T07:58:17.852Z,13.65
2018-10-07T07:58:58.177Z,13.80
2018-10-07T07:59:38.888Z,13.90
2018-10-07T08:00:19.316Z,13.58
2018-10-07T08:00:59.783Z,13.60
2018-10-07T08:01:40.151Z,12.98
2018-10-07T08:02:20.662Z,12.80
2018-10-07T08:03:00.824Z,13.90
2018-10-07T08:03:41.153Z,13.10
2018-10-07T08:04:21.598Z,13.53
2018-10-07T08:05:01.912Z,13.85
2018-10-07T08:05:42.259Z,14.95
2018-10-07T08:06:22.682Z,12.90
2018-10-07T08:07:03.076Z,13.70
2018-10-07T08:07:43.365Z,13.45
2018-10-07T08:08:23.882Z,13.35
2018-10-07T08:09:06.285Z,12.95
2018-10-07T08:09:46.677Z,14.10
2018-10-07T08:10:26.850Z,14.28
2018-10-07T08:11:07.307Z,13.40
2018-10-07T08:11:47.796Z,14.47
2018-10-07T08:12:28.125Z,14.20
2018-10-07T08:13:08.469Z,13.85
2018-10-07T08:13:48.913Z,14.50
2018-10-07T08:14:29.405Z,14.13
2018-10-07T08:15:09.905Z,13.88
2018-10-07T08:15:50.320Z,13.70
2018-10-07T08:16:30.765Z,13.93
2018-10-07T08:17:11.273Z,13.22
2018-10-07T08:17:52.145Z,14.20
2018-10-07T08:18:32.700Z,13.58
2018-10-07T08:19:12.968Z,14.18
2018-10-07T08:19:53.662Z,13.65
2018-10-07T08:20:33.889Z,14.45
2018-10-07T08:21:14.701Z,14.30
2018-10-07T08:21:55.144Z,14.15
2018-10-07T08:22:35.315Z,13.38
2018-10-07T08:23:15.801Z,13.13
2018-10-07T08:23:56.321Z,13.62
2018-10-07T08:24:36.847Z,13.72
2018-10-07T08:25:17.453Z,13.45
2018-10-07T08:25:57.861Z,13.48
2018-10-07T08:26:38.140Z,13.72
2018-10-07T08:27:18.607Z,13.60
2018-10-07T08:27:58.768Z,13.95
2018-10-07T08:28:39.001Z,14.25
2018-10-07T08:29:19.287Z,13.18
2018-10-07T08:29:59.594Z,14.07
2018-10-07T08:30:40.340Z,14.45
2018-10-07T08:31:20.972Z,13.50
2018-10-07T08:32:01.245Z,14.25
2018-10-07T08:32:41.496Z,13.32
2018-10-07T08:33:21.766Z,13.75
2018-10-07T08:34:01.852Z,13.40
2018-10-07T08:34:41.937Z,13.22
2018-10-07T08:35:22.180Z,13.85
2018-10-07T08:36:02.615Z,13.53
2018-10-07T08:36:42.762Z,13.15
2018-10-07T08:37:23.031Z,13.80
2018-10-07T08:38:03.267Z,13.80
2018-10-07T08:38:43.422Z,14.20
2018-10-07T08:39:23.720Z,13.75
2018-10-07T08:40:03.936Z,14.68
2018-10-07T08:40:44.084Z,15.15
2018-10-07T08:41:24.420Z,13.88
2018-10-07T08:42:04.699Z,15.68
2018-10-07T08:42:45.056Z,15.55
2018-10-07T08:43:25.315Z,16.25
2018-10-07T08:44:05.712Z,15.40
2018-10-07T08:44:45.937Z,16.05
2018-10-07T08:45:26.164Z,16.25
2018-10-07T08:46:06.437Z,16.70
2018-10-07T08:46:46.800Z,15.98
2018-10-07T08:47:27.040Z,17.35
2018-10-07T08:48:07.712Z,16.52
2018-10-07T08:48:49.313Z,15.70
2018-10-07T08:49:29.616Z,16.30
2018-10-07T08:50:09.921Z,16.87
2018-10-07T08:50:50.291Z,16.65